Startpagina
METAR-TAF:

METAR-TAF

Vliegvelden :

Lynden Pindling International Airport

Nassau, Bahama's

breedte: 25-03N, lengte: 077-28W, hoogte: 3 m

Actueel weer

Dit bericht is 21 minuten geleden gemaakt, om 06:00 UTC
Wind 7 kt uit het oostnoordoosten
Temperatuur 25°C
Vochtigheid 69%
Druk 1018 hPa
Zicht 10 km of meer
Weinig wolken op 2000 ft
Verspreide wolken op 3000 ft

METAR: MYNN 180600Z 07007KT 9999 FEW020 SCT030 25/19 A3006

Tijdstip: 01:21 (06:21 UTC)

Verwachting

Dit bericht is 2 uur en het 21 minuten geleden gemaakt, om 04:00 UTC
Verwachting geldig van 18 om 06 UTC tot 19 om 06 UTC
Wind 9 kt uit het oostnoordoosten
Zicht 10 km of meer
Weinig wolken op 2000 ft

TAF: MYNN 180400Z 1806/1906 070009KT 9999 FEW020

Waarnemingen en weersverwachtingen van meer dan 4000 vliegvelden (METAR en TAF).

De beschikbare stations zijn de gele en rode punten op de kaart.

Ga met uw muis naar het station om de naam te zien.

Klik dan om waarnemingen en weersverwachtingen te zien.

kaart wijzigen: klik op de groene knoppen met een zwart kruis om in te zoomen, op de groene knop met een streepje om uit te zoomen of op de groene pijlen voor aangrenzende kaarten.


METAR-TAF: